sensor_id;sensor_type;location;lat;lon;timestamp;P1;durP1;ratioP1;P2;durP2;ratioP2
2712;SDS011;1366;47.988;7.856;2023-05-29T00:01:42;7.07;;;5.60;;
2712;SDS011;1366;47.988;7.856;2023-05-29T00:04:09;7.93;;;6.40;;
2712;SDS011;1366;47.988;7.856;2023-05-29T00:06:37;7.47;;;6.00;;
2712;SDS011;1366;47.988;7.856;2023-05-29T00:09:04;7.03;;;6.33;;
2712;SDS011;1366;47.988;7.856;2023-05-29T00:11:31;7.80;;;5.73;;
2712;SDS011;1366;47.988;7.856;2023-05-29T00:13:59;6.03;;;5.53;;
2712;SDS011;1366;47.988;7.856;2023-05-29T00:16:25;7.70;;;6.47;;
2712;SDS011;1366;47.988;7.856;2023-05-29T00:18:52;6.80;;;6.20;;
2712;SDS011;1366;47.988;7.856;2023-05-29T00:21:19;6.87;;;6.13;;
2712;SDS011;1366;47.988;7.856;2023-05-29T00:23:45;6.30;;;5.70;;
2712;SDS011;1366;47.988;7.856;2023-05-29T00:26:11;8.00;;;6.10;;
2712;SDS011;1366;47.988;7.856;2023-05-29T00:28:39;7.77;;;6.00;;
2712;SDS011;1366;47.988;7.856;2023-05-29T00:31:05;7.23;;;5.90;;
2712;SDS011;1366;47.988;7.856;2023-05-29T00:33:31;7.00;;;6.07;;
2712;SDS011;1366;47.988;7.856;2023-05-29T00:35:58;6.77;;;5.87;;
2712;SDS011;1366;47.988;7.856;2023-05-29T00:38:24;9.37;;;6.10;;
2712;SDS011;1366;47.988;7.856;2023-05-29T00:40:51;7.70;;;6.17;;
2712;SDS011;1366;47.988;7.856;2023-05-29T00:43:17;6.50;;;5.40;;
2712;SDS011;1366;47.988;7.856;2023-05-29T00:45:43;8.40;;;6.23;;
2712;SDS011;1366;47.988;7.856;2023-05-29T00:48:10;10.33;;;6.47;;
2712;SDS011;1366;47.988;7.856;2023-05-29T00:50:36;6.67;;;6.07;;
2712;SDS011;1366;47.988;7.856;2023-05-29T00:53:03;6.80;;;6.17;;
2712;SDS011;1366;47.988;7.856;2023-05-29T00:55:31;7.00;;;5.97;;
2712;SDS011;1366;47.988;7.856;2023-05-29T00:57:57;7.53;;;5.70;;
2712;SDS011;1366;47.988;7.856;2023-05-29T01:00:24;11.23;;;6.40;;
2712;SDS011;1366;47.988;7.856;2023-05-29T01:02:51;8.73;;;6.27;;
2712;SDS011;1366;47.988;7.856;2023-05-29T01:05:17;7.10;;;6.10;;
2712;SDS011;1366;47.988;7.856;2023-05-29T01:07:44;8.60;;;6.70;;
2712;SDS011;1366;47.988;7.856;2023-05-29T01:10:10;8.10;;;6.57;;
2712;SDS011;1366;47.988;7.856;2023-05-29T01:15:10;7.70;;;6.90;;
2712;SDS011;1366;47.988;7.856;2023-05-29T01:17:47;7.83;;;6.20;;
2712;SDS011;1366;47.988;7.856;2023-05-29T01:25:22;6.33;;;5.60;;
2712;SDS011;1366;47.988;7.856;2023-05-29T01:27:49;6.17;;;5.57;;
2712;SDS011;1366;47.988;7.856;2023-05-29T01:30:17;6.57;;;5.63;;
2712;SDS011;1366;47.988;7.856;2023-05-29T01:32:43;7.23;;;6.30;;
2712;SDS011;1366;47.988;7.856;2023-05-29T01:35:09;6.83;;;6.23;;
2712;SDS011;1366;47.988;7.856;2023-05-29T01:37:35;8.20;;;6.30;;
2712;SDS011;1366;47.988;7.856;2023-05-29T01:40:01;7.43;;;6.10;;
2712;SDS011;1366;47.988;7.856;2023-05-29T01:42:29;7.07;;;5.63;;
2712;SDS011;1366;47.988;7.856;2023-05-29T01:44:55;7.77;;;6.27;;
2712;SDS011;1366;47.988;7.856;2023-05-29T01:47:22;6.83;;;5.70;;
2712;SDS011;1366;47.988;7.856;2023-05-29T01:49:49;7.37;;;6.57;;
2712;SDS011;1366;47.988;7.856;2023-05-29T01:52:15;7.00;;;5.80;;
2712;SDS011;1366;47.988;7.856;2023-05-29T01:54:43;7.00;;;5.70;;
2712;SDS011;1366;47.988;7.856;2023-05-29T01:57:10;7.47;;;6.67;;
2712;SDS011;1366;47.988;7.856;2023-05-29T01:59:37;6.80;;;6.10;;
2712;SDS011;1366;47.988;7.856;2023-05-29T02:02:09;8.00;;;6.20;;
2712;SDS011;1366;47.988;7.856;2023-05-29T02:04:37;8.63;;;6.63;;
2712;SDS011;1366;47.988;7.856;2023-05-29T02:07:03;10.07;;;6.97;;
2712;SDS011;1366;47.988;7.856;2023-05-29T02:09:31;6.90;;;6.10;;
2712;SDS011;1366;47.988;7.856;2023-05-29T02:11:58;6.70;;;6.10;;
2712;SDS011;1366;47.988;7.856;2023-05-29T02:14:26;8.80;;;6.47;;
2712;SDS011;1366;47.988;7.856;2023-05-29T02:16:52;8.13;;;6.40;;
2712;SDS011;1366;47.988;7.856;2023-05-29T02:19:19;7.30;;;5.87;;
2712;SDS011;1366;47.988;7.856;2023-05-29T02:21:46;8.30;;;5.63;;
2712;SDS011;1366;47.988;7.856;2023-05-29T02:24:13;6.90;;;6.30;;
2712;SDS011;1366;47.988;7.856;2023-05-29T02:26:40;8.87;;;6.10;;
2712;SDS011;1366;47.988;7.856;2023-05-29T02:29:07;6.60;;;6.00;;
2712;SDS011;1366;47.988;7.856;2023-05-29T02:31:33;6.10;;;5.50;;
2712;SDS011;1366;47.988;7.856;2023-05-29T02:33:59;8.00;;;5.80;;
2712;SDS011;1366;47.988;7.856;2023-05-29T02:36:25;7.03;;;6.10;;
2712;SDS011;1366;47.988;7.856;2023-05-29T02:38:52;6.77;;;6.07;;
2712;SDS011;1366;47.988;7.856;2023-05-29T02:41:18;6.23;;;5.53;;
2712;SDS011;1366;47.988;7.856;2023-05-29T02:43:45;9.33;;;6.30;;
2712;SDS011;1366;47.988;7.856;2023-05-29T02:46:12;7.50;;;6.40;;
2712;SDS011;1366;47.988;7.856;2023-05-29T02:48:38;9.33;;;6.03;;
2712;SDS011;1366;47.988;7.856;2023-05-29T02:51:04;7.33;;;6.00;;
2712;SDS011;1366;47.988;7.856;2023-05-29T02:53:31;7.47;;;5.70;;
2712;SDS011;1366;47.988;7.856;2023-05-29T02:55:57;8.00;;;6.00;;
2712;SDS011;1366;47.988;7.856;2023-05-29T02:58:23;10.03;;;6.50;;
2712;SDS011;1366;47.988;7.856;2023-05-29T03:00:49;7.10;;;6.23;;
2712;SDS011;1366;47.988;7.856;2023-05-29T03:03:17;7.17;;;5.60;;
2712;SDS011;1366;47.988;7.856;2023-05-29T03:05:43;6.43;;;5.80;;
2712;SDS011;1366;47.988;7.856;2023-05-29T03:08:11;7.00;;;6.23;;
2712;SDS011;1366;47.988;7.856;2023-05-29T03:10:37;7.30;;;6.00;;
2712;SDS011;1366;47.988;7.856;2023-05-29T03:13:03;7.43;;;5.73;;
2712;SDS011;1366;47.988;7.856;2023-05-29T03:15:30;7.40;;;6.70;;
2712;SDS011;1366;47.988;7.856;2023-05-29T03:17:56;6.33;;;5.30;;
2712;SDS011;1366;47.988;7.856;2023-05-29T03:20:22;7.33;;;6.07;;
2712;SDS011;1366;47.988;7.856;2023-05-29T03:22:48;8.23;;;6.37;;
2712;SDS011;1366;47.988;7.856;2023-05-29T03:25:15;7.13;;;6.23;;
2712;SDS011;1366;47.988;7.856;2023-05-29T03:27:42;8.20;;;6.00;;
2712;SDS011;1366;47.988;7.856;2023-05-29T03:30:08;7.83;;;6.13;;
2712;SDS011;1366;47.988;7.856;2023-05-29T03:32:34;10.40;;;6.40;;
2712;SDS011;1366;47.988;7.856;2023-05-29T03:35:00;6.23;;;5.73;;
2712;SDS011;1366;47.988;7.856;2023-05-29T03:37:28;6.67;;;5.40;;
2712;SDS011;1366;47.988;7.856;2023-05-29T03:39:55;6.73;;;6.10;;
2712;SDS011;1366;47.988;7.856;2023-05-29T03:42:21;7.13;;;6.40;;
2712;SDS011;1366;47.988;7.856;2023-05-29T03:44:47;7.30;;;5.60;;
2712;SDS011;1366;47.988;7.856;2023-05-29T03:47:13;6.93;;;6.03;;
2712;SDS011;1366;47.988;7.856;2023-05-29T03:49:40;9.77;;;5.93;;
2712;SDS011;1366;47.988;7.856;2023-05-29T03:52:06;6.43;;;5.30;;
2712;SDS011;1366;47.988;7.856;2023-05-29T03:54:32;8.77;;;6.43;;
2712;SDS011;1366;47.988;7.856;2023-05-29T03:56:58;7.30;;;5.97;;
2712;SDS011;1366;47.988;7.856;2023-05-29T03:59:25;7.10;;;5.60;;
2712;SDS011;1366;47.988;7.856;2023-05-29T04:01:51;8.17;;;5.77;;
2712;SDS011;1366;47.988;7.856;2023-05-29T04:04:17;6.23;;;5.60;;
2712;SDS011;1366;47.988;7.856;2023-05-29T04:06:43;6.80;;;6.20;;
2712;SDS011;1366;47.988;7.856;2023-05-29T04:09:09;6.93;;;6.03;;
2712;SDS011;1366;47.988;7.856;2023-05-29T04:11:36;6.83;;;5.50;;
2712;SDS011;1366;47.988;7.856;2023-05-29T04:14:03;6.93;;;6.23;;
2712;SDS011;1366;47.988;7.856;2023-05-29T04:16:29;8.30;;;5.40;;
2712;SDS011;1366;47.988;7.856;2023-05-29T04:18:55;7.03;;;6.33;;
2712;SDS011;1366;47.988;7.856;2023-05-29T04:21:21;8.47;;;6.57;;
2712;SDS011;1366;47.988;7.856;2023-05-29T04:23:48;7.00;;;6.30;;
2712;SDS011;1366;47.988;7.856;2023-05-29T04:26:14;6.03;;;5.43;;
2712;SDS011;1366;47.988;7.856;2023-05-29T04:28:40;8.33;;;6.23;;
2712;SDS011;1366;47.988;7.856;2023-05-29T04:31:07;7.07;;;6.33;;
2712;SDS011;1366;47.988;7.856;2023-05-29T04:33:39;6.40;;;5.80;;
2712;SDS011;1366;47.988;7.856;2023-05-29T04:36:06;7.40;;;6.03;;
2712;SDS011;1366;47.988;7.856;2023-05-29T04:38:33;7.10;;;6.40;;
2712;SDS011;1366;47.988;7.856;2023-05-29T04:41:02;9.27;;;5.40;;
2712;SDS011;1366;47.988;7.856;2023-05-29T04:43:28;8.10;;;6.50;;
2712;SDS011;1366;47.988;7.856;2023-05-29T04:45:54;6.93;;;6.07;;
2712;SDS011;1366;47.988;7.856;2023-05-29T04:48:20;7.63;;;6.60;;
2712;SDS011;1366;47.988;7.856;2023-05-29T04:50:46;6.50;;;5.80;;
2712;SDS011;1366;47.988;7.856;2023-05-29T04:53:13;7.87;;;6.13;;
2712;SDS011;1366;47.988;7.856;2023-05-29T04:55:39;9.23;;;5.80;;
2712;SDS011;1366;47.988;7.856;2023-05-29T04:58:05;10.77;;;6.97;;
2712;SDS011;1366;47.988;7.856;2023-05-29T05:00:31;7.83;;;6.17;;
2712;SDS011;1366;47.988;7.856;2023-05-29T05:02:57;8.80;;;6.03;;
2712;SDS011;1366;47.988;7.856;2023-05-29T05:05:23;8.33;;;5.97;;
2712;SDS011;1366;47.988;7.856;2023-05-29T05:07:49;6.57;;;5.90;;
2712;SDS011;1366;47.988;7.856;2023-05-29T05:10:15;7.57;;;6.33;;
2712;SDS011;1366;47.988;7.856;2023-05-29T05:12:41;5.77;;;5.00;;
2712;SDS011;1366;47.988;7.856;2023-05-29T05:15:08;6.40;;;5.67;;
2712;SDS011;1366;47.988;7.856;2023-05-29T05:17:34;6.27;;;5.23;;
2712;SDS011;1366;47.988;7.856;2023-05-29T05:20:00;8.33;;;6.30;;
2712;SDS011;1366;47.988;7.856;2023-05-29T05:22:28;9.23;;;6.13;;
2712;SDS011;1366;47.988;7.856;2023-05-29T05:24:54;10.50;;;6.50;;
2712;SDS011;1366;47.988;7.856;2023-05-29T05:27:21;9.50;;;6.60;;
2712;SDS011;1366;47.988;7.856;2023-05-29T05:29:47;7.57;;;6.27;;
2712;SDS011;1366;47.988;7.856;2023-05-29T05:32:14;6.30;;;5.60;;
2712;SDS011;1366;47.988;7.856;2023-05-29T05:34:40;9.57;;;7.30;;
2712;SDS011;1366;47.988;7.856;2023-05-29T05:37:06;10.40;;;7.20;;
2712;SDS011;1366;47.988;7.856;2023-05-29T05:39:32;7.87;;;6.17;;
2712;SDS011;1366;47.988;7.856;2023-05-29T05:41:58;8.40;;;6.40;;
2712;SDS011;1366;47.988;7.856;2023-05-29T05:44:24;8.50;;;6.10;;
2712;SDS011;1366;47.988;7.856;2023-05-29T05:46:51;8.93;;;6.60;;
2712;SDS011;1366;47.988;7.856;2023-05-29T05:49:17;9.53;;;6.50;;
2712;SDS011;1366;47.988;7.856;2023-05-29T05:51:43;10.00;;;7.43;;
2712;SDS011;1366;47.988;7.856;2023-05-29T05:54:10;7.57;;;6.70;;
2712;SDS011;1366;47.988;7.856;2023-05-29T05:56:36;8.20;;;7.40;;
2712;SDS011;1366;47.988;7.856;2023-05-29T05:59:02;7.50;;;5.90;;
2712;SDS011;1366;47.988;7.856;2023-05-29T06:01:28;9.40;;;6.47;;
2712;SDS011;1366;47.988;7.856;2023-05-29T06:03:55;11.10;;;7.33;;
2712;SDS011;1366;47.988;7.856;2023-05-29T06:06:21;8.20;;;7.20;;
2712;SDS011;1366;47.988;7.856;2023-05-29T06:08:47;8.00;;;7.20;;
2712;SDS011;1366;47.988;7.856;2023-05-29T06:11:14;8.50;;;6.47;;
2712;SDS011;1366;47.988;7.856;2023-05-29T06:13:40;10.57;;;6.93;;
2712;SDS011;1366;47.988;7.856;2023-05-29T06:16:07;8.00;;;7.20;;
2712;SDS011;1366;47.988;7.856;2023-05-29T06:18:33;9.50;;;7.70;;
2712;SDS011;1366;47.988;7.856;2023-05-29T06:20:59;9.03;;;7.87;;
2712;SDS011;1366;47.988;7.856;2023-05-29T06:23:26;8.73;;;7.00;;
2712;SDS011;1366;47.988;7.856;2023-05-29T06:25:52;9.13;;;6.50;;
2712;SDS011;1366;47.988;7.856;2023-05-29T06:28:19;7.90;;;7.13;;
2712;SDS011;1366;47.988;7.856;2023-05-29T06:30:45;9.33;;;6.93;;
2712;SDS011;1366;47.988;7.856;2023-05-29T06:33:12;10.67;;;8.00;;
2712;SDS011;1366;47.988;7.856;2023-05-29T06:35:40;10.13;;;7.33;;
2712;SDS011;1366;47.988;7.856;2023-05-29T06:38:06;11.10;;;7.77;;
2712;SDS011;1366;47.988;7.856;2023-05-29T06:40:33;7.57;;;6.73;;
2712;SDS011;1366;47.988;7.856;2023-05-29T06:43:00;8.87;;;7.30;;
2712;SDS011;1366;47.988;7.856;2023-05-29T06:45:26;8.27;;;7.40;;
2712;SDS011;1366;47.988;7.856;2023-05-29T06:47:53;9.07;;;7.10;;
2712;SDS011;1366;47.988;7.856;2023-05-29T06:50:20;9.30;;;6.70;;
2712;SDS011;1366;47.988;7.856;2023-05-29T06:52:47;10.13;;;7.50;;
2712;SDS011;1366;47.988;7.856;2023-05-29T06:55:14;8.87;;;6.93;;
2712;SDS011;1366;47.988;7.856;2023-05-29T06:57:41;8.33;;;7.47;;
2712;SDS011;1366;47.988;7.856;2023-05-29T07:00:08;6.93;;;6.33;;
2712;SDS011;1366;47.988;7.856;2023-05-29T07:02:36;8.40;;;6.60;;
2712;SDS011;1366;47.988;7.856;2023-05-29T07:05:04;9.20;;;6.90;;
2712;SDS011;1366;47.988;7.856;2023-05-29T07:07:31;9.57;;;7.10;;
2712;SDS011;1366;47.988;7.856;2023-05-29T07:09:58;7.73;;;6.93;;
2712;SDS011;1366;47.988;7.856;2023-05-29T07:12:26;9.03;;;7.13;;
2712;SDS011;1366;47.988;7.856;2023-05-29T07:14:54;9.50;;;6.70;;
2712;SDS011;1366;47.988;7.856;2023-05-29T07:17:21;7.63;;;6.97;;
2712;SDS011;1366;47.988;7.856;2023-05-29T07:19:48;7.40;;;6.70;;
2712;SDS011;1366;47.988;7.856;2023-05-29T07:22:17;10.70;;;6.37;;
2712;SDS011;1366;47.988;7.856;2023-05-29T07:24:45;7.47;;;6.50;;
2712;SDS011;1366;47.988;7.856;2023-05-29T07:27:12;9.67;;;7.00;;
2712;SDS011;1366;47.988;7.856;2023-05-29T07:29:39;9.27;;;7.13;;
2712;SDS011;1366;47.988;7.856;2023-05-29T07:32:07;10.23;;;7.40;;
2712;SDS011;1366;47.988;7.856;2023-05-29T07:34:35;8.43;;;6.37;;
2712;SDS011;1366;47.988;7.856;2023-05-29T07:37:04;8.63;;;7.20;;
2712;SDS011;1366;47.988;7.856;2023-05-29T07:39:33;8.90;;;7.17;;
2712;SDS011;1366;47.988;7.856;2023-05-29T07:42:02;7.63;;;6.80;;
2712;SDS011;1366;47.988;7.856;2023-05-29T07:44:29;7.00;;;6.20;;
2712;SDS011;1366;47.988;7.856;2023-05-29T07:46:56;8.53;;;6.40;;
2712;SDS011;1366;47.988;7.856;2023-05-29T07:49:23;7.97;;;7.13;;
2712;SDS011;1366;47.988;7.856;2023-05-29T07:51:51;6.63;;;5.93;;
2712;SDS011;1366;47.988;7.856;2023-05-29T07:54:17;9.30;;;7.40;;
2712;SDS011;1366;47.988;7.856;2023-05-29T07:56:46;11.13;;;7.10;;
2712;SDS011;1366;47.988;7.856;2023-05-29T07:59:13;8.77;;;6.57;;
2712;SDS011;1366;47.988;7.856;2023-05-29T08:01:39;16.33;;;7.10;;
2712;SDS011;1366;47.988;7.856;2023-05-29T08:04:06;7.37;;;6.60;;
2712;SDS011;1366;47.988;7.856;2023-05-29T08:06:33;8.90;;;7.30;;
2712;SDS011;1366;47.988;7.856;2023-05-29T08:08:59;8.07;;;6.30;;
2712;SDS011;1366;47.988;7.856;2023-05-29T08:11:26;7.17;;;6.00;;
2712;SDS011;1366;47.988;7.856;2023-05-29T08:13:53;9.90;;;6.50;;
2712;SDS011;1366;47.988;7.856;2023-05-29T08:16:20;7.67;;;5.93;;
2712;SDS011;1366;47.988;7.856;2023-05-29T08:18:48;7.00;;;6.07;;
2712;SDS011;1366;47.988;7.856;2023-05-29T08:21:16;8.00;;;6.87;;
2712;SDS011;1366;47.988;7.856;2023-05-29T08:23:43;7.37;;;6.27;;
2712;SDS011;1366;47.988;7.856;2023-05-29T08:26:12;7.10;;;6.40;;
2712;SDS011;1366;47.988;7.856;2023-05-29T08:28:41;7.47;;;6.70;;
2712;SDS011;1366;47.988;7.856;2023-05-29T08:31:08;9.33;;;6.63;;
2712;SDS011;1366;47.988;7.856;2023-05-29T08:33:36;7.60;;;6.70;;
2712;SDS011;1366;47.988;7.856;2023-05-29T08:36:03;7.50;;;6.70;;
2712;SDS011;1366;47.988;7.856;2023-05-29T08:38:31;6.40;;;5.60;;
2712;SDS011;1366;47.988;7.856;2023-05-29T08:41:00;7.97;;;6.73;;
2712;SDS011;1366;47.988;7.856;2023-05-29T08:43:31;6.87;;;6.20;;
2712;SDS011;1366;47.988;7.856;2023-05-29T08:46:00;10.30;;;6.20;;
2712;SDS011;1366;47.988;7.856;2023-05-29T08:48:29;7.87;;;6.03;;
2712;SDS011;1366;47.988;7.856;2023-05-29T08:50:59;6.97;;;5.97;;
2712;SDS011;1366;47.988;7.856;2023-05-29T08:53:31;8.80;;;6.10;;
2712;SDS011;1366;47.988;7.856;2023-05-29T08:55:59;9.07;;;6.17;;
2712;SDS011;1366;47.988;7.856;2023-05-29T08:58:26;14.90;;;6.57;;
2712;SDS011;1366;47.988;7.856;2023-05-29T09:00:53;7.23;;;6.23;;
2712;SDS011;1366;47.988;7.856;2023-05-29T09:03:21;6.27;;;5.73;;
2712;SDS011;1366;47.988;7.856;2023-05-29T09:05:48;6.23;;;5.60;;
2712;SDS011;1366;47.988;7.856;2023-05-29T09:08:17;7.63;;;6.90;;
2712;SDS011;1366;47.988;7.856;2023-05-29T09:10:47;6.70;;;5.97;;
2712;SDS011;1366;47.988;7.856;2023-05-29T09:13:15;7.57;;;5.97;;
2712;SDS011;1366;47.988;7.856;2023-05-29T09:15:43;6.83;;;6.13;;
2712;SDS011;1366;47.988;7.856;2023-05-29T09:18:11;6.07;;;5.43;;
2712;SDS011;1366;47.988;7.856;2023-05-29T09:20:38;7.30;;;5.57;;
2712;SDS011;1366;47.988;7.856;2023-05-29T09:23:07;6.93;;;6.20;;
2712;SDS011;1366;47.988;7.856;2023-05-29T09:25:39;6.57;;;5.97;;
2712;SDS011;1366;47.988;7.856;2023-05-29T09:28:10;6.80;;;6.00;;
2712;SDS011;1366;47.988;7.856;2023-05-29T09:33:10;8.00;;;6.20;;
2712;SDS011;1366;47.988;7.856;2023-05-29T09:35:42;6.93;;;6.13;;
2712;SDS011;1366;47.988;7.856;2023-05-29T09:38:10;6.43;;;5.73;;
2712;SDS011;1366;47.988;7.856;2023-05-29T09:40:38;6.97;;;5.33;;
2712;SDS011;1366;47.988;7.856;2023-05-29T09:43:10;5.33;;;4.83;;
2712;SDS011;1366;47.988;7.856;2023-05-29T09:45:37;6.67;;;6.07;;
2712;SDS011;1366;47.988;7.856;2023-05-29T09:48:08;7.10;;;6.40;;
2712;SDS011;1366;47.988;7.856;2023-05-29T09:50:40;6.77;;;5.93;;
2712;SDS011;1366;47.988;7.856;2023-05-29T09:55:44;6.23;;;5.63;;
2712;SDS011;1366;47.988;7.856;2023-05-29T09:58:15;7.53;;;5.90;;
2712;SDS011;1366;47.988;7.856;2023-05-29T10:00:44;6.07;;;5.47;;
2712;SDS011;1366;47.988;7.856;2023-05-29T10:03:12;10.63;;;5.47;;
2712;SDS011;1366;47.988;7.856;2023-05-29T10:05:39;6.50;;;5.40;;
2712;SDS011;1366;47.988;7.856;2023-05-29T10:08:15;10.03;;;6.40;;
2712;SDS011;1366;47.988;7.856;2023-05-29T10:10:44;6.97;;;5.50;;
2712;SDS011;1366;47.988;7.856;2023-05-29T10:13:13;6.30;;;5.37;;
2712;SDS011;1366;47.988;7.856;2023-05-29T10:15:45;7.00;;;6.20;;
2712;SDS011;1366;47.988;7.856;2023-05-29T10:18:31;8.10;;;5.23;;
2712;SDS011;1366;47.988;7.856;2023-05-29T10:20:59;6.63;;;5.63;;
2712;SDS011;1366;47.988;7.856;2023-05-29T10:23:28;5.67;;;5.17;;
2712;SDS011;1366;47.988;7.856;2023-05-29T10:26:07;7.30;;;5.13;;
2712;SDS011;1366;47.988;7.856;2023-05-29T10:28:38;7.30;;;5.37;;
2712;SDS011;1366;47.988;7.856;2023-05-29T10:31:10;6.37;;;5.77;;
2712;SDS011;1366;47.988;7.856;2023-05-29T10:36:13;6.87;;;5.83;;
2712;SDS011;1366;47.988;7.856;2023-05-29T10:38:40;7.43;;;5.63;;
2712;SDS011;1366;47.988;7.856;2023-05-29T10:41:41;5.80;;;5.30;;
2712;SDS011;1366;47.988;7.856;2023-05-29T10:44:51;6.47;;;5.80;;
2712;SDS011;1366;47.988;7.856;2023-05-29T10:49:21;5.73;;;5.10;;
2712;SDS011;1366;47.988;7.856;2023-05-29T10:51:49;8.00;;;5.77;;
2712;SDS011;1366;47.988;7.856;2023-05-29T10:54:25;6.37;;;5.77;;
2712;SDS011;1366;47.988;7.856;2023-05-29T10:57:00;6.90;;;5.80;;
2712;SDS011;1366;47.988;7.856;2023-05-29T10:59:29;6.93;;;5.20;;
2712;SDS011;1366;47.988;7.856;2023-05-29T11:02:02;5.33;;;4.80;;
2712;SDS011;1366;47.988;7.856;2023-05-29T11:04:31;6.00;;;4.73;;
2712;SDS011;1366;47.988;7.856;2023-05-29T11:06:59;5.87;;;5.00;;
2712;SDS011;1366;47.988;7.856;2023-05-29T11:09:37;6.20;;;5.60;;
2712;SDS011;1366;47.988;7.856;2023-05-29T11:14:46;7.30;;;5.90;;
2712;SDS011;1366;47.988;7.856;2023-05-29T11:20:01;8.10;;;5.43;;
2712;SDS011;1366;47.988;7.856;2023-05-29T11:25:27;5.43;;;4.93;;
2712;SDS011;1366;47.988;7.856;2023-05-29T11:27:54;7.13;;;6.03;;
2712;SDS011;1366;47.988;7.856;2023-05-29T11:30:25;6.40;;;5.80;;
2712;SDS011;1366;47.988;7.856;2023-05-29T11:32:53;6.63;;;5.73;;
2712;SDS011;1366;47.988;7.856;2023-05-29T11:35:22;6.07;;;5.33;;
2712;SDS011;1366;47.988;7.856;2023-05-29T11:37:49;6.50;;;5.90;;
2712;SDS011;1366;47.988;7.856;2023-05-29T11:40:17;5.93;;;5.27;;
2712;SDS011;1366;47.988;7.856;2023-05-29T11:42:45;6.30;;;5.70;;
2712;SDS011;1366;47.988;7.856;2023-05-29T11:45:17;6.23;;;5.10;;
2712;SDS011;1366;47.988;7.856;2023-05-29T11:47:55;6.67;;;6.07;;
2712;SDS011;1366;47.988;7.856;2023-05-29T11:50:23;6.30;;;5.80;;
2712;SDS011;1366;47.988;7.856;2023-05-29T11:52:51;6.60;;;5.90;;
2712;SDS011;1366;47.988;7.856;2023-05-29T11:55:20;5.70;;;5.07;;
2712;SDS011;1366;47.988;7.856;2023-05-29T11:57:51;6.20;;;5.60;;
2712;SDS011;1366;47.988;7.856;2023-05-29T12:00:20;6.30;;;5.63;;
2712;SDS011;1366;47.988;7.856;2023-05-29T12:02:48;6.47;;;5.80;;
2712;SDS011;1366;47.988;7.856;2023-05-29T12:05:16;6.40;;;5.80;;
2712;SDS011;1366;47.988;7.856;2023-05-29T12:07:48;6.27;;;5.70;;
2712;SDS011;1366;47.988;7.856;2023-05-29T12:10:17;5.47;;;5.00;;
2712;SDS011;1366;47.988;7.856;2023-05-29T12:12:55;5.60;;;5.20;;
2712;SDS011;1366;47.988;7.856;2023-05-29T12:15:22;7.87;;;4.87;;
2712;SDS011;1366;47.988;7.856;2023-05-29T12:17:51;5.70;;;5.20;;
2712;SDS011;1366;47.988;7.856;2023-05-29T12:20:19;6.77;;;5.10;;
2712;SDS011;1366;47.988;7.856;2023-05-29T12:22:46;7.23;;;5.57;;
2712;SDS011;1366;47.988;7.856;2023-05-29T12:25:17;6.37;;;5.73;;
2712;SDS011;1366;47.988;7.856;2023-05-29T12:27:45;6.70;;;5.90;;
2712;SDS011;1366;47.988;7.856;2023-05-29T12:30:14;6.40;;;5.80;;
2712;SDS011;1366;47.988;7.856;2023-05-29T12:32:42;5.80;;;5.30;;
2712;SDS011;1366;47.988;7.856;2023-05-29T12:35:15;5.83;;;5.23;;
2712;SDS011;1366;47.988;7.856;2023-05-29T12:37:57;6.80;;;5.37;;
2712;SDS011;1366;47.988;7.856;2023-05-29T12:40:27;6.23;;;5.63;;
2712;SDS011;1366;47.988;7.856;2023-05-29T12:43:02;9.23;;;6.03;;
2712;SDS011;1366;47.988;7.856;2023-05-29T12:45:30;6.23;;;5.63;;
2712;SDS011;1366;47.988;7.856;2023-05-29T12:50:32;6.73;;;5.80;;
2712;SDS011;1366;47.988;7.856;2023-05-29T12:53:01;6.67;;;6.07;;
2712;SDS011;1366;47.988;7.856;2023-05-29T12:55:31;5.80;;;5.27;;
2712;SDS011;1366;47.988;7.856;2023-05-29T12:58:03;6.10;;;5.50;;
2712;SDS011;1366;47.988;7.856;2023-05-29T13:00:31;6.70;;;5.73;;
2712;SDS011;1366;47.988;7.856;2023-05-29T13:03:00;6.43;;;5.70;;
2712;SDS011;1366;47.988;7.856;2023-05-29T13:05:28;6.77;;;6.17;;
2712;SDS011;1366;47.988;7.856;2023-05-29T13:07:57;6.40;;;5.80;;
2712;SDS011;1366;47.988;7.856;2023-05-29T13:10:26;7.00;;;6.30;;
2712;SDS011;1366;47.988;7.856;2023-05-29T13:12:55;6.53;;;5.87;;
2712;SDS011;1366;47.988;7.856;2023-05-29T13:15:25;6.00;;;5.40;;
2712;SDS011;1366;47.988;7.856;2023-05-29T13:17:56;6.87;;;5.63;;
2712;SDS011;1366;47.988;7.856;2023-05-29T13:20:24;7.03;;;5.90;;
2712;SDS011;1366;47.988;7.856;2023-05-29T13:22:53;6.20;;;5.60;;
2712;SDS011;1366;47.988;7.856;2023-05-29T13:25:27;6.63;;;5.80;;
2712;SDS011;1366;47.988;7.856;2023-05-29T13:27:56;6.50;;;5.03;;
2712;SDS011;1366;47.988;7.856;2023-05-29T13:30:25;7.53;;;5.77;;
2712;SDS011;1366;47.988;7.856;2023-05-29T13:32:54;6.30;;;5.70;;
2712;SDS011;1366;47.988;7.856;2023-05-29T13:35:22;5.90;;;5.40;;
2712;SDS011;1366;47.988;7.856;2023-05-29T13:37:50;6.13;;;5.60;;
2712;SDS011;1366;47.988;7.856;2023-05-29T13:40:18;6.20;;;5.67;;
2712;SDS011;1366;47.988;7.856;2023-05-29T13:42:46;6.50;;;5.90;;
2712;SDS011;1366;47.988;7.856;2023-05-29T13:45:14;6.23;;;5.63;;
2712;SDS011;1366;47.988;7.856;2023-05-29T13:47:42;6.17;;;5.53;;
2712;SDS011;1366;47.988;7.856;2023-05-29T13:50:09;6.40;;;5.80;;
2712;SDS011;1366;47.988;7.856;2023-05-29T13:52:36;6.10;;;5.60;;
2712;SDS011;1366;47.988;7.856;2023-05-29T13:55:02;6.83;;;6.00;;
2712;SDS011;1366;47.988;7.856;2023-05-29T13:57:34;6.23;;;5.63;;
2712;SDS011;1366;47.988;7.856;2023-05-29T14:00:05;5.87;;;5.27;;
2712;SDS011;1366;47.988;7.856;2023-05-29T14:02:31;6.37;;;5.77;;
2712;SDS011;1366;47.988;7.856;2023-05-29T14:04:57;5.83;;;5.33;;
2712;SDS011;1366;47.988;7.856;2023-05-29T14:07:24;6.83;;;5.50;;
2712;SDS011;1366;47.988;7.856;2023-05-29T14:09:51;6.40;;;5.80;;
2712;SDS011;1366;47.988;7.856;2023-05-29T14:12:18;6.70;;;6.10;;
2712;SDS011;1366;47.988;7.856;2023-05-29T14:14:44;7.17;;;6.07;;
2712;SDS011;1366;47.988;7.856;2023-05-29T14:17:11;5.80;;;5.23;;
2712;SDS011;1366;47.988;7.856;2023-05-29T14:19:38;5.67;;;5.27;;
2712;SDS011;1366;47.988;7.856;2023-05-29T14:22:05;6.33;;;5.73;;
2712;SDS011;1366;47.988;7.856;2023-05-29T14:24:31;6.83;;;6.23;;
2712;SDS011;1366;47.988;7.856;2023-05-29T14:26:59;7.17;;;5.90;;
2712;SDS011;1366;47.988;7.856;2023-05-29T14:29:27;6.00;;;5.50;;
2712;SDS011;1366;47.988;7.856;2023-05-29T14:31:54;6.17;;;5.63;;
2712;SDS011;1366;47.988;7.856;2023-05-29T14:34:22;6.07;;;5.53;;
2712;SDS011;1366;47.988;7.856;2023-05-29T14:36:50;6.87;;;5.37;;
2712;SDS011;1366;47.988;7.856;2023-05-29T14:39:18;7.13;;;5.53;;
2712;SDS011;1366;47.988;7.856;2023-05-29T14:41:47;5.83;;;5.23;;
2712;SDS011;1366;47.988;7.856;2023-05-29T14:44:15;6.83;;;6.10;;
2712;SDS011;1366;47.988;7.856;2023-05-29T14:46:43;6.60;;;4.93;;
2712;SDS011;1366;47.988;7.856;2023-05-29T14:49:13;6.40;;;5.80;;
2712;SDS011;1366;47.988;7.856;2023-05-29T14:51:47;5.70;;;5.20;;
2712;SDS011;1366;47.988;7.856;2023-05-29T14:54:19;8.10;;;5.57;;
2712;SDS011;1366;47.988;7.856;2023-05-29T14:56:49;6.43;;;5.37;;
2712;SDS011;1366;47.988;7.856;2023-05-29T14:59:17;6.00;;;5.40;;
2712;SDS011;1366;47.988;7.856;2023-05-29T15:01:46;6.30;;;5.80;;
2712;SDS011;1366;47.988;7.856;2023-05-29T15:04:15;5.80;;;5.30;;
2712;SDS011;1366;47.988;7.856;2023-05-29T15:06:44;6.43;;;5.83;;
2712;SDS011;1366;47.988;7.856;2023-05-29T15:09:12;6.10;;;5.50;;
2712;SDS011;1366;47.988;7.856;2023-05-29T15:11:40;6.37;;;5.70;;
2712;SDS011;1366;47.988;7.856;2023-05-29T15:14:09;6.63;;;5.13;;
2712;SDS011;1366;47.988;7.856;2023-05-29T15:16:38;6.33;;;5.73;;
2712;SDS011;1366;47.988;7.856;2023-05-29T15:19:11;5.90;;;5.30;;
2712;SDS011;1366;47.988;7.856;2023-05-29T15:21:40;5.93;;;5.40;;
2712;SDS011;1366;47.988;7.856;2023-05-29T15:24:11;5.80;;;5.30;;
2712;SDS011;1366;47.988;7.856;2023-05-29T15:26:40;5.70;;;5.20;;
2712;SDS011;1366;47.988;7.856;2023-05-29T15:29:12;6.17;;;5.70;;
2712;SDS011;1366;47.988;7.856;2023-05-29T15:31:43;6.07;;;5.47;;
2712;SDS011;1366;47.988;7.856;2023-05-29T15:34:11;6.00;;;5.50;;
2712;SDS011;1366;47.988;7.856;2023-05-29T15:36:40;5.60;;;5.20;;
2712;SDS011;1366;47.988;7.856;2023-05-29T15:39:09;6.93;;;5.40;;
2712;SDS011;1366;47.988;7.856;2023-05-29T15:41:37;6.87;;;5.63;;
2712;SDS011;1366;47.988;7.856;2023-05-29T15:44:07;6.40;;;5.70;;
2712;SDS011;1366;47.988;7.856;2023-05-29T15:46:40;5.20;;;4.80;;
2712;SDS011;1366;47.988;7.856;2023-05-29T15:49:12;6.17;;;5.60;;